.
WxDataArchive / Data Records for 2013-08-15
2013-08-14 August 2013 2013-08-16

Data Records for Thursday, 15 August 2013

Time	Temp	Chill	HIndex	Humid	Dewpt	 Wind 	HiWind	WindDir	Rain 	Barom 
-----	----	-----	------	-----	-----	------	------	-------	-----	----- 
00:00	55.9	55.9	55.9	84	51.1	0	0	---	0.00	30.160 
00:05	56.0	56.0	56.0	84	51.2	0	0	---	0.00	30.160 
00:10	56.2	56.2	56.2	84	51.4	0	0	---	0.00	30.160 
00:15	56.2	56.2	56.2	84	51.4	0	0	---	0.00	30.161 
00:20	56.3	56.3	56.3	84	51.5	0	0	---	0.00	30.161 
00:25	56.6	56.6	56.6	83	51.5	0	0	---	0.00	30.161 
00:30	56.7	56.7	56.7	82	51.3	0	0	---	0.00	30.158 
00:35	56.9	56.9	56.9	81	51.1	0	0	---	0.00	30.158 
00:40	56.9	56.9	56.9	81	51.1	0	0	---	0.00	30.158 
00:45	56.9	56.9	56.9	81	51.1	0	0	---	0.00	30.159 
00:50	56.9	56.9	56.9	80	50.8	0	0	---	0.00	30.159 
00:55	56.7	56.7	56.7	80	50.6	0	0	---	0.00	30.159 
01:00	56.7	56.7	56.7	80	50.6	0	0	---	0.00	30.159 
01:05	56.5	56.5	56.5	80	50.4	0	0	---	0.00	30.159 
01:10	56.3	56.3	56.3	81	50.5	0	0	---	0.00	30.159 
01:15	56.3	56.3	56.3	81	50.5	0	0	---	0.00	30.160 
01:20	56.2	56.2	56.2	81	50.4	0	0	---	0.00	30.160 
01:25	55.9	55.9	55.9	81	50.2	0	0	---	0.00	30.160 
01:30	55.7	55.7	55.7	81	50.0	0	0	---	0.00	30.156 
01:35	55.6	55.6	55.6	82	50.2	0	0	---	0.00	30.156 
01:40	55.4	55.4	55.4	82	50.0	0	0	---	0.00	30.156 
01:45	55.3	55.3	55.3	82	49.9	0	0	---	0.00	30.158 
01:50	55.1	55.1	55.1	83	50.0	0	0	---	0.00	30.158 
01:55	55.0	55.0	55.0	83	49.9	0	0	---	0.00	30.158 
02:00	54.7	54.7	54.7	84	50.0	0	0	---	0.00	30.149 
02:05	54.4	54.4	54.4	84	49.7	0	0	---	0.00	30.149 
02:10	54.2	54.2	54.2	85	49.8	0	0	---	0.00	30.149 
02:15	54.1	54.1	54.1	85	49.7	0	0	---	0.00	30.147 
02:20	53.8	53.8	53.8	85	49.4	0	0	---	0.00	30.147 
02:25	53.6	53.6	53.6	86	49.5	0	0	---	0.00	30.147 
02:30	53.5	53.5	53.5	86	49.4	0	0	---	0.00	30.144 
02:35	53.3	53.3	53.3	86	49.2	0	0	---	0.00	30.144 
02:40	53.2	53.2	53.2	87	49.4	0	0	---	0.00	30.144 
02:45	53.1	53.1	53.1	87	49.3	0	0	---	0.00	30.141 
02:50	53.1	53.1	53.1	88	49.6	0	0	---	0.00	30.141 
02:55	52.9	52.9	52.9	88	49.4	0	0	---	0.00	30.141 
03:00	52.8	52.8	52.8	88	49.3	0	0	---	0.00	30.142 
03:05	52.6	52.6	52.6	88	49.1	0	0	---	0.00	30.142 
03:10	52.5	52.5	52.5	88	49.0	0	0	---	0.00	30.142 
03:15	52.3	52.3	52.3	88	48.9	0	0	---	0.00	30.144 
03:20	52.2	52.2	52.2	89	49.1	0	0	---	0.00	30.144 
03:25	52.0	52.0	52.0	89	48.9	0	0	---	0.00	30.144 
03:30	52.0	52.0	52.0	89	48.9	0	0	---	0.00	30.144 
03:35	51.9	51.9	51.9	89	48.8	0	0	---	0.00	30.144 
03:40	51.6	51.6	51.6	89	48.5	0	0	---	0.00	30.144 
03:45	51.4	51.4	51.4	90	48.6	0	0	---	0.00	30.147 
03:50	51.3	51.3	51.3	90	48.5	0	0	---	0.00	30.147 
03:55	51.1	51.1	51.1	90	48.3	0	0	---	0.00	30.147 
04:00	51.1	51.1	51.1	90	48.3	0	0	---	0.00	30.149 
04:05	51.0	51.0	51.0	90	48.2	0	0	---	0.00	30.149 
04:10	50.8	50.8	50.8	91	48.3	0	0	---	0.00	30.149 
04:15	50.8	50.8	50.8	91	48.3	0	0	---	0.00	30.147 
04:20	50.7	50.7	50.7	91	48.2	0	0	---	0.00	30.147 
04:25	50.5	50.5	50.5	91	48.0	0	0	---	0.00	30.147 
04:30	50.5	50.5	50.5	91	48.0	0	0	---	0.00	30.147 
04:35	50.4	50.4	50.4	91	47.9	0	0	---	0.00	30.147 
04:40	50.4	50.4	50.4	92	48.2	0	0	---	0.00	30.147 
04:45	50.2	50.2	50.2	92	48.0	0	0	---	0.00	30.145 
04:50	50.1	50.1	50.1	92	47.9	0	0	---	0.00	30.145 
04:55	49.9	49.9	49.9	92	47.7	0	0	---	0.00	30.145 
05:00	49.8	49.8	49.8	92	47.6	0	0	---	0.00	30.147 
05:05	49.8	49.8	49.8	92	47.6	0	0	---	0.00	30.147 
05:10	49.6	49.6	49.6	92	47.4	0	0	---	0.00	30.147 
05:15	49.6	49.6	49.6	92	47.4	0	0	---	0.00	30.152 
05:20	49.6	49.6	49.6	92	47.4	0	0	---	0.00	30.152 
05:25	49.6	49.6	49.6	92	47.4	0	0	---	0.00	30.152 
05:30	49.6	49.6	49.6	92	47.4	0	0	---	0.00	30.152 
05:35	49.5	49.5	49.5	92	47.3	0	0	---	0.00	30.152 
05:40	49.5	49.5	49.5	92	47.3	0	0	---	0.00	30.152 
05:45	49.4	49.4	49.4	93	47.5	0	0	---	0.00	30.153 
05:50	49.2	49.2	49.2	93	47.3	0	0	---	0.00	30.153 
05:55	49.2	49.2	49.2	93	47.3	0	0	---	0.00	30.153 
06:00	49.1	49.1	49.1	93	47.2	0	0	---	0.00	30.155 
06:05	48.9	48.9	48.9	93	47.0	0	0	---	0.00	30.155 
06:10	48.9	48.9	48.9	93	47.0	0	0	---	0.00	30.155 
06:15	48.9	48.9	48.9	93	47.0	0	0	---	0.00	30.157 
06:20	48.9	48.9	48.9	93	47.0	0	0	---	0.00	30.157 
06:25	48.9	48.9	48.9	93	47.0	0	0	---	0.00	30.157 
06:30	48.9	48.9	48.9	93	47.0	0	0	---	0.00	30.152 
06:35	48.9	48.9	48.9	93	47.0	0	0	---	0.00	30.152 
06:40	48.8	48.8	48.8	93	46.9	0	0	---	0.00	30.152 
06:45	48.8	48.8	48.8	93	46.9	0	0	---	0.00	30.156 
06:50	48.6	48.6	48.6	93	46.7	0	0	---	0.00	30.156 
06:55	48.5	48.5	48.5	93	46.6	0	0	---	0.00	30.156 
07:00	48.5	48.5	48.5	93	46.6	0	0	---	0.00	30.163 
07:05	48.5	48.5	48.5	93	46.6	0	0	---	0.00	30.163 
07:10	48.5	48.5	48.5	94	46.9	0	0	---	0.00	30.163 
07:15	48.5	48.5	48.5	94	46.9	0	0	---	0.00	30.164 
07:20	48.6	48.6	48.6	94	47.0	0	0	---	0.00	30.164 
07:25	48.8	48.8	48.8	94	47.1	0	0	---	0.00	30.164 
07:30	48.9	48.9	48.9	94	47.2	0	0	---	0.00	30.166 
07:35	49.1	49.1	49.1	94	47.4	0	0	---	0.00	30.166 
07:40	49.4	49.4	49.4	94	47.7	0	0	---	0.00	30.166 
07:45	49.8	49.8	49.8	94	48.1	0	0	---	0.00	30.166 
07:50	50.2	50.2	50.2	95	48.8	0	0	---	0.00	30.166 
07:55	50.8	50.8	50.8	95	49.4	0	0	---	0.00	30.166 
08:00	51.6	51.6	51.6	95	50.2	0	0	---	0.00	30.166 
08:05	52.2	52.2	52.2	95	50.8	0	0	---	0.00	30.166 
08:10	52.8	52.8	52.8	95	51.4	0	0	---	0.00	30.166 
08:15	53.5	53.5	53.5	95	52.1	0	0	---	0.00	30.170 
08:20	54.1	54.1	54.1	94	52.4	0	0	---	0.00	30.170 
08:25	54.7	54.7	54.7	94	53.0	0	0	---	0.00	30.170 
08:30	55.3	55.3	55.3	94	53.6	0	0	---	0.00	30.169 
08:35	55.9	55.9	55.9	93	53.9	0	0	---	0.00	30.169 
08:40	56.5	56.5	56.5	93	54.5	0	0	---	0.00	30.169 
08:45	56.9	56.9	56.9	92	54.6	0	0	---	0.00	30.167 
08:50	57.8	57.8	57.8	91	55.2	0	0	---	0.00	30.167 
08:55	58.6	58.6	58.6	87	54.7	0	0	---	0.00	30.167 
09:00	58.9	58.9	58.9	85	54.4	0	0	---	0.00	30.171 
09:05	59.2	59.2	59.2	83	54.0	0	0	---	0.00	30.171 
09:10	59.8	59.8	59.8	83	54.6	0	0	---	0.00	30.171 
09:15	60.7	60.7	60.7	79	54.1	0	0	---	0.00	30.173 
09:20	61.5	61.5	61.5	76	53.9	0	0	---	0.00	30.173 
09:25	62.3	62.3	62.3	73	53.5	0	0	---	0.00	30.173 
09:30	63.1	63.1	63.1	70	53.2	0	0	---	0.00	30.171 
09:35	64.0	64.0	64.0	69	53.6	0	0	---	0.00	30.171 
09:40	65.0	65.0	65.0	65	52.9	0	0	---	0.00	30.171 
09:45	65.6	65.6	65.6	64	53.1	0	0	---	0.00	30.169 
09:50	66.1	66.1	66.1	63	53.1	0	0	---	0.00	30.169 
09:55	66.1	66.1	66.1	63	53.1	0	0	---	0.00	30.169 
10:00	66.1	66.1	66.1	62	52.7	0	0	---	0.00	30.166 
10:05	66.3	66.3	66.3	59	51.5	0	0	---	0.00	30.166 
10:10	66.6	66.6	66.6	57	50.9	0	0	---	0.00	30.166 
10:15	66.9	66.9	66.9	59	52.1	0	0	---	0.00	30.169 
10:20	66.6	66.6	66.6	59	51.8	0	0	---	0.00	30.169 
10:25	66.8	66.8	66.8	57	51.1	0	0	---	0.00	30.169 
10:30	67.6	67.6	67.6	55	50.8	0	0	---	0.00	30.164 
10:35	68.6	68.6	68.6	53	50.8	0	0	---	0.00	30.164 
10:40	68.9	68.9	68.9	54	51.6	0	0	---	0.00	30.164 
10:45	69.6	69.6	69.6	53	51.7	0	0	---	0.00	30.166 
10:50	69.6	69.6	69.6	48	49.0	0	0	---	0.00	30.166 
10:55	69.3	69.3	69.3	52	50.9	0	0	---	0.00	30.166 
11:00	68.9	68.9	68.9	50	49.5	0	1	338	0.00	30.168 
11:05	68.8	68.8	68.8	50	49.4	0	2	338	0.00	30.168 
11:10	68.8	68.8	68.8	54	51.5	1	2	338	0.00	30.168 
11:15	68.8	68.8	68.8	50	49.4	0	2	338	0.00	30.171 
11:20	69.1	69.1	69.1	49	49.1	1	2	338	0.00	30.171 
11:25	69.3	69.3	69.3	46	47.6	0	1	338	0.00	30.171 
11:30	69.8	69.8	69.8	48	49.2	0	1	338	0.00	30.170 
11:35	70.1	70.1	70.1	46	48.3	0	1	338	0.00	30.170 
11:40	70.6	70.6	70.6	46	48.8	0	3	90	0.00	30.170 
11:45	71.1	71.1	71.1	47	49.8	0	1	90	0.00	30.171 
11:50	71.3	71.3	71.3	42	47.0	0	2	90	0.00	30.171 
11:55	70.9	70.9	70.9	44	47.9	0	2	90	0.00	30.171 
12:00	70.6	70.6	70.6	45	48.2	0	2	90	0.00	30.168 
12:05	70.9	70.9	70.9	46	49.1	0	2	90	0.00	30.168 
12:10	71.6	71.6	71.6	44	48.5	0	1	90	0.00	30.168 
12:15	72.0	72.0	72.0	42	47.6	0	1	90	0.00	30.162 
12:20	72.3	72.3	72.3	46	50.3	0	1	90	0.00	30.162 
12:25	72.7	72.7	72.7	40	47.0	1	3	90	0.00	30.162 
12:30	72.8	72.8	72.8	43	49.0	1	4	90	0.00	30.157 
12:35	72.8	72.8	72.8	42	48.4	1	4	90	0.00	30.157 
12:40	73.5	73.5	73.5	47	52.0	0	1	90	0.00	30.157 
12:45	74.2	74.2	74.2	43	50.2	0	3	90	0.00	30.154 
12:50	73.9	73.9	73.9	39	47.4	1	2	90	0.00	30.154 
12:55	73.9	73.9	73.9	44	50.6	0	3	90	0.00	30.154 
13:00	73.0	73.0	73.0	44	49.8	1	4	90	0.00	30.151 
13:05	72.5	72.5	72.5	43	48.7	1	3	90	0.00	30.151 
13:10	72.3	72.3	72.3	43	48.5	0	2	90	0.00	30.151 
13:15	72.8	72.8	72.8	40	47.1	1	2	90	0.00	30.147 
13:20	73.0	73.0	73.0	41	47.9	0	2	90	0.00	30.147 
13:25	73.7	73.7	73.7	45	51.0	0	1	90	0.00	30.147 
13:30	73.7	73.7	73.7	44	50.4	0	2	90	0.00	30.142 
13:35	72.3	72.3	72.3	43	48.5	0	2	90	0.00	30.142 
13:40	70.9	70.9	70.9	43	47.3	1	2	90	0.00	30.142 
13:45	70.3	70.3	70.3	45	47.9	0	1	90	0.00	30.143 
13:50	70.3	70.3	70.3	44	47.3	0	0	---	0.00	30.143 
13:55	70.9	70.9	70.9	50	51.3	1	3	90	0.00	30.143 
14:00	71.8	71.8	71.8	45	49.3	1	3	90	0.00	30.135 
14:05	72.3	72.3	72.3	47	50.9	0	2	90	0.00	30.135 
14:10	73.0	73.0	73.0	43	49.2	2	5	90	0.00	30.135 
14:15	73.2	73.2	73.2	42	48.7	2	4	90	0.00	30.127 
14:20	73.2	73.2	73.2	42	48.7	1	3	90	0.00	30.127 
14:25	73.3	73.3	73.3	43	49.4	0	2	90	0.00	30.127 
14:30	73.2	73.2	73.2	43	49.3	0	1	90	0.00	30.125 
14:35	72.7	72.7	72.7	43	48.9	0	1	90	0.00	30.125 
14:40	72.3	72.3	72.3	45	49.8	0	0	---	0.00	30.125 
14:45	72.7	72.7	72.7	46	50.7	0	3	90	0.00	30.124 
14:50	73.5	73.5	73.5	42	49.0	0	2	90	0.00	30.124 
14:55	74.0	74.0	74.0	42	49.4	1	3	90	0.00	30.124 
15:00	73.5	73.5	73.5	40	47.7	1	2	90	0.00	30.123 
15:05	73.2	73.2	73.2	44	50.0	1	3	90	0.00	30.123 
15:10	73.0	73.0	73.0	43	49.2	0	2	90	0.00	30.123 
15:15	72.8	72.8	72.8	44	49.6	0	1	90	0.00	30.122 
15:20	72.7	72.7	72.7	47	51.3	0	1	90	0.00	30.122 
15:25	72.7	72.7	72.7	43	48.9	0	2	90	0.00	30.122 
15:30	72.7	72.7	72.7	46	50.7	0	2	90	0.00	30.115 
15:35	73.0	73.0	73.0	44	49.8	0	1	90	0.00	30.115 
15:40	73.0	73.0	73.0	43	49.2	0	3	90	0.00	30.115 
15:45	72.7	72.7	72.7	43	48.9	0	2	90	0.00	30.112 
15:50	72.5	72.5	72.5	43	48.7	0	1	90	0.00	30.112 
15:55	72.5	72.5	72.5	43	48.7	0	3	90	0.00	30.112 
16:00	72.5	72.5	72.5	44	49.3	0	1	90	0.00	30.110 
16:05	73.0	73.0	73.0	49	52.7	0	1	90	0.00	30.110 
16:10	73.5	73.5	73.5	42	49.0	0	2	90	0.00	30.110 
16:15	73.9	73.9	73.9	39	47.4	0	1	90	0.00	30.103 
16:20	74.0	74.0	74.0	41	48.8	0	2	90	0.00	30.103 
16:25	74.2	74.2	74.2	39	47.6	0	2	90	0.00	30.103 
16:30	74.0	74.0	74.0	41	48.8	0	1	90	0.00	30.100 
16:35	73.9	73.9	73.9	40	48.0	0	2	90	0.00	30.100 
16:40	74.4	74.4	74.4	42	49.8	0	2	90	0.00	30.100 
16:45	75.1	75.1	77.6	43	51.1	0	1	90	0.00	30.096 
16:50	75.8	75.8	77.7	40	49.7	0	2	90	0.00	30.096 
16:55	76.0	76.0	77.7	38	48.5	0	2	90	0.00	30.096 
17:00	75.8	75.8	77.7	38	48.4	0	2	90	0.00	30.094 
17:05	75.4	75.4	77.7	42	50.7	0	1	90	0.00	30.094 
17:10	75.6	75.6	77.6	39	48.9	0	2	45	0.00	30.094 
17:15	75.1	75.1	77.4	38	47.7	0	1	45	0.00	30.096 
17:20	74.4	74.4	74.4	41	49.1	0	0	---	0.00	30.096 
17:25	73.7	73.7	73.7	41	48.5	0	0	---	0.00	30.096 
17:30	73.3	73.3	73.3	41	48.2	0	2	45	0.00	30.098 
17:35	72.8	72.8	72.8	39	46.4	1	2	45	0.00	30.098 
17:40	72.7	72.7	72.7	40	47.0	0	1	45	0.00	30.098 
17:45	72.7	72.7	72.7	41	47.6	0	0	---	0.00	30.101 
17:50	72.8	72.8	72.8	41	47.7	0	0	---	0.00	30.101 
17:55	72.8	72.8	72.8	41	47.7	0	1	45	0.00	30.101 
18:00	72.7	72.7	72.7	42	48.3	0	0	---	0.00	30.100 
18:05	72.7	72.7	72.7	43	48.9	0	0	---	0.00	30.100 
18:10	72.7	72.7	72.7	46	50.7	0	0	---	0.00	30.100 
18:15	72.5	72.5	72.5	47	51.1	0	0	---	0.00	30.100 
18:20	72.3	72.3	72.3	48	51.5	0	0	---	0.00	30.100 
18:25	72.3	72.3	72.3	44	49.2	0	0	---	0.00	30.100 
18:30	72.1	72.1	72.1	41	47.1	0	0	---	0.00	30.104 
18:35	72.3	72.3	72.3	43	48.5	0	1	45	0.00	30.104 
18:40	72.1	72.1	72.1	44	49.0	0	1	45	0.00	30.104 
18:45	72.3	72.3	72.3	43	48.5	0	0	---	0.00	30.102 
18:50	72.1	72.1	72.1	42	47.7	0	0	---	0.00	30.102 
18:55	72.1	72.1	72.1	45	49.6	0	0	---	0.00	30.102 
19:00	71.8	71.8	71.8	43	48.1	0	0	---	0.00	30.100 
19:05	71.8	71.8	71.8	42	47.5	0	0	---	0.00	30.100 
19:10	71.6	71.6	71.6	42	47.3	0	0	---	0.00	30.100 
19:15	71.6	71.6	71.6	43	47.9	0	0	---	0.00	30.097 
19:20	71.5	71.5	71.5	41	46.5	0	0	---	0.00	30.097 
19:25	71.3	71.3	71.3	42	47.0	0	0	---	0.00	30.097 
19:30	71.5	71.5	71.5	47	50.2	0	0	---	0.00	30.096 
19:35	71.3	71.3	71.3	51	52.2	0	0	---	0.00	30.096 
19:40	70.9	70.9	70.9	50	51.3	0	0	---	0.00	30.096 
19:45	70.8	70.8	70.8	52	52.3	0	0	---	0.00	30.102 
19:50	70.6	70.6	70.6	52	52.1	0	0	---	0.00	30.102 
19:55	70.3	70.3	70.3	53	52.3	0	0	---	0.00	30.102 
20:00	69.9	69.9	69.9	54	52.5	0	0	---	0.00	30.101 
20:05	69.8	69.8	69.8	55	52.9	0	0	---	0.00	30.101 
20:10	69.4	69.4	69.4	56	53.0	0	0	---	0.00	30.101 
20:15	69.3	69.3	69.3	57	53.4	0	0	---	0.00	30.094 
20:20	68.8	68.8	68.8	57	52.9	0	0	---	0.00	30.094 
20:25	68.4	68.4	68.4	58	53.0	0	0	---	0.00	30.094 
20:30	67.9	67.9	67.9	58	52.6	0	0	---	0.00	30.098 
20:35	67.6	67.6	67.6	60	53.2	0	0	---	0.00	30.098 
20:40	67.1	67.1	67.1	61	53.2	0	0	---	0.00	30.098 
20:45	66.6	66.6	66.6	62	53.2	0	0	---	0.00	30.104 
20:50	66.1	66.1	66.1	62	52.7	0	0	---	0.00	30.104 
20:55	65.8	65.8	65.8	64	53.3	0	0	---	0.00	30.104 
21:00	65.3	65.3	65.3	65	53.2	0	0	---	0.00	30.109 
21:05	65.0	65.0	65.0	65	52.9	0	0	---	0.00	30.109 
21:10	64.7	64.7	64.7	67	53.5	0	0	---	0.00	30.109 
21:15	64.2	64.2	64.2	67	53.0	0	0	---	0.00	30.105 
21:20	63.9	63.9	63.9	67	52.7	0	0	---	0.00	30.105 
21:25	63.4	63.4	63.4	68	52.6	0	0	---	0.00	30.105 
21:30	63.2	63.2	63.2	68	52.5	0	0	---	0.00	30.108 
21:35	63.1	63.1	63.1	69	52.8	0	0	---	0.00	30.108 
21:40	62.9	62.9	62.9	70	53.0	0	0	---	0.00	30.108 
21:45	62.6	62.6	62.6	71	53.1	0	0	---	0.00	30.110 
21:50	62.4	62.4	62.4	72	53.2	0	0	---	0.00	30.110 
21:55	62.4	62.4	62.4	73	53.6	0	0	---	0.00	30.110 
22:00	62.3	62.3	62.3	73	53.5	0	0	---	0.00	30.115 
22:05	62.0	62.0	62.0	74	53.6	0	0	---	0.00	30.115 
22:10	61.8	61.8	61.8	75	53.8	0	0	---	0.00	30.115 
22:15	61.6	61.6	61.6	75	53.6	0	0	---	0.00	30.117 
22:20	61.5	61.5	61.5	76	53.9	0	0	---	0.00	30.117 
22:25	61.5	61.5	61.5	76	53.9	0	0	---	0.00	30.117 
22:30	61.3	61.3	61.3	77	54.0	0	0	---	0.00	30.119 
22:35	61.3	61.3	61.3	77	54.0	0	0	---	0.00	30.119 
22:40	61.2	61.2	61.2	77	53.9	0	0	---	0.00	30.119 
22:45	61.2	61.2	61.2	77	53.9	0	0	---	0.00	30.117 
22:50	61.0	61.0	61.0	77	53.7	0	0	---	0.00	30.117 
22:55	60.9	60.9	60.9	78	54.0	0	0	---	0.00	30.117 
23:00	60.7	60.7	60.7	78	53.8	0	0	---	0.00	30.111 
23:05	60.5	60.5	60.5	78	53.6	0	0	---	0.00	30.111 
23:10	60.4	60.4	60.4	78	53.5	0	0	---	0.00	30.111 
23:15	60.4	60.4	60.4	78	53.5	0	0	---	0.00	30.115 
23:20	60.2	60.2	60.2	79	53.7	0	0	---	0.00	30.115 
23:25	60.1	60.1	60.1	79	53.6	0	0	---	0.00	30.115 
23:30	59.9	59.9	59.9	80	53.7	0	0	---	0.00	30.113 
23:35	59.8	59.8	59.8	80	53.6	0	0	---	0.00	30.113 
23:40	59.6	59.6	59.6	81	53.8	0	0	---	0.00	30.113 
23:45	59.5	59.5	59.5	81	53.7	0	0	---	0.00	30.110 
23:50	59.3	59.3	59.3	81	53.5	0	0	---	0.00	30.110 
23:55	59.2	59.2	59.2	81	53.4	0	0	---	0.00	30.110 

CoCoRaHS
IN-AL-39
A2 Web Hosting
Creative Commons License
GoDaddy
search engine by freefind advanced

loaded 2018-11-13 22:03:53 • last modified 2010-11-18 10:43:29
Privacy PolicyDisclaimer
• wx.awcolley.com is powered by PmWiki v.2002016 •
• all content (unless otherwise noted) © 2018 A W Colley